sensor_id;sensor_type;location;lat;lon;timestamp;P1;durP1;ratioP1;P2;durP2;ratioP2
20229;SDS011;12195;55.790;37.572;2023-06-14T00:02:45;14.20;;;3.40;;
20229;SDS011;12195;55.790;37.572;2023-06-14T00:05:18;7.33;;;2.92;;
20229;SDS011;12195;55.790;37.572;2023-06-14T00:08:01;6.42;;;2.62;;
20229;SDS011;12195;55.790;37.572;2023-06-14T00:10:36;8.38;;;3.87;;
20229;SDS011;12195;55.790;37.572;2023-06-14T00:13:20;6.97;;;3.33;;
20229;SDS011;12195;55.790;37.572;2023-06-14T00:15:52;9.70;;;3.10;;
20229;SDS011;12195;55.790;37.572;2023-06-14T00:18:35;7.60;;;3.00;;
20229;SDS011;12195;55.790;37.572;2023-06-14T00:21:08;8.38;;;2.77;;
20229;SDS011;12195;55.790;37.572;2023-06-14T00:23:41;12.15;;;3.30;;
20229;SDS011;12195;55.790;37.572;2023-06-14T00:26:23;8.03;;;2.90;;
20229;SDS011;12195;55.790;37.572;2023-06-14T00:28:57;6.73;;;2.83;;
20229;SDS011;12195;55.790;37.572;2023-06-14T00:31:39;9.38;;;3.00;;
20229;SDS011;12195;55.790;37.572;2023-06-14T00:34:12;10.72;;;3.60;;
20229;SDS011;12195;55.790;37.572;2023-06-14T00:36:54;15.83;;;3.27;;
20229;SDS011;12195;55.790;37.572;2023-06-14T00:39:26;11.43;;;3.35;;
20229;SDS011;12195;55.790;37.572;2023-06-14T00:42:08;10.70;;;3.10;;
20229;SDS011;12195;55.790;37.572;2023-06-14T00:44:41;9.40;;;3.60;;
20229;SDS011;12195;55.790;37.572;2023-06-14T00:47:23;9.70;;;3.20;;
20229;SDS011;12195;55.790;37.572;2023-06-14T00:50:09;9.50;;;3.45;;
20229;SDS011;12195;55.790;37.572;2023-06-14T00:52:54;12.05;;;3.20;;
20229;SDS011;12195;55.790;37.572;2023-06-14T00:55:39;13.20;;;3.37;;
20229;SDS011;12195;55.790;37.572;2023-06-14T00:58:12;85.92;;;12.90;;
20229;SDS011;12195;55.790;37.572;2023-06-14T01:00:56;9.88;;;3.15;;
20229;SDS011;12195;55.790;37.572;2023-06-14T01:03:28;5.12;;;2.77;;
20229;SDS011;12195;55.790;37.572;2023-06-14T01:06:08;11.20;;;3.47;;
20229;SDS011;12195;55.790;37.572;2023-06-14T01:12:11;6.58;;;3.90;;
20229;SDS011;12195;55.790;37.572;2023-06-14T01:14:54;11.63;;;3.87;;
20229;SDS011;12195;55.790;37.572;2023-06-14T01:17:30;14.73;;;3.72;;
20229;SDS011;12195;55.790;37.572;2023-06-14T01:20:04;12.10;;;3.43;;
20229;SDS011;12195;55.790;37.572;2023-06-14T01:22:51;6.53;;;3.12;;
20229;SDS011;12195;55.790;37.572;2023-06-14T01:25:25;9.53;;;3.17;;
20229;SDS011;12195;55.790;37.572;2023-06-14T01:28:08;6.97;;;3.60;;
20229;SDS011;12195;55.790;37.572;2023-06-14T01:30:45;7.10;;;3.15;;
20229;SDS011;12195;55.790;37.572;2023-06-14T01:33:21;17.07;;;3.72;;
20229;SDS011;12195;55.790;37.572;2023-06-14T01:36:06;7.80;;;3.30;;
20229;SDS011;12195;55.790;37.572;2023-06-14T01:38:40;11.20;;;3.92;;
20229;SDS011;12195;55.790;37.572;2023-06-14T01:41:24;8.80;;;4.15;;
20229;SDS011;12195;55.790;37.572;2023-06-14T01:43:58;7.40;;;3.50;;
20229;SDS011;12195;55.790;37.572;2023-06-14T01:46:31;7.33;;;3.72;;
20229;SDS011;12195;55.790;37.572;2023-06-14T01:49:16;9.85;;;3.62;;
20229;SDS011;12195;55.790;37.572;2023-06-14T01:51:49;7.03;;;3.62;;
20229;SDS011;12195;55.790;37.572;2023-06-14T01:54:31;10.93;;;3.27;;
20229;SDS011;12195;55.790;37.572;2023-06-14T01:57:16;6.75;;;3.62;;
20229;SDS011;12195;55.790;37.572;2023-06-14T01:59:48;9.68;;;3.87;;
20229;SDS011;12195;55.790;37.572;2023-06-14T02:02:32;9.58;;;3.70;;
20229;SDS011;12195;55.790;37.572;2023-06-14T02:05:16;10.48;;;4.03;;
20229;SDS011;12195;55.790;37.572;2023-06-14T02:07:50;11.22;;;3.85;;
20229;SDS011;12195;55.790;37.572;2023-06-14T02:10:33;9.30;;;3.75;;
20229;SDS011;12195;55.790;37.572;2023-06-14T02:13:06;7.80;;;3.70;;
20229;SDS011;12195;55.790;37.572;2023-06-14T02:15:52;13.20;;;5.10;;
20229;SDS011;12195;55.790;37.572;2023-06-14T02:18:35;11.15;;;3.90;;
20229;SDS011;12195;55.790;37.572;2023-06-14T02:21:17;8.95;;;3.58;;
20229;SDS011;12195;55.790;37.572;2023-06-14T02:24:00;7.60;;;4.12;;
20229;SDS011;12195;55.790;37.572;2023-06-14T02:26:43;13.72;;;4.58;;
20229;SDS011;12195;55.790;37.572;2023-06-14T02:29:17;13.58;;;4.05;;
20229;SDS011;12195;55.790;37.572;2023-06-14T02:31:49;14.25;;;4.83;;
20229;SDS011;12195;55.790;37.572;2023-06-14T02:34:22;11.93;;;4.65;;
20229;SDS011;12195;55.790;37.572;2023-06-14T02:37:05;18.90;;;4.80;;
20229;SDS011;12195;55.790;37.572;2023-06-14T02:39:37;18.82;;;5.40;;
20229;SDS011;12195;55.790;37.572;2023-06-14T02:42:21;13.88;;;4.55;;
20229;SDS011;12195;55.790;37.572;2023-06-14T02:44:54;26.48;;;6.17;;
20229;SDS011;12195;55.790;37.572;2023-06-14T02:47:36;15.65;;;4.78;;
20229;SDS011;12195;55.790;37.572;2023-06-14T02:50:18;15.15;;;4.75;;
20229;SDS011;12195;55.790;37.572;2023-06-14T02:52:52;18.57;;;5.70;;
20229;SDS011;12195;55.790;37.572;2023-06-14T02:55:35;25.55;;;5.37;;
20229;SDS011;12195;55.790;37.572;2023-06-14T02:58:10;16.17;;;5.10;;
20229;SDS011;12195;55.790;37.572;2023-06-14T03:00:55;11.70;;;5.00;;
20229;SDS011;12195;55.790;37.572;2023-06-14T03:03:27;17.10;;;5.50;;
20229;SDS011;12195;55.790;37.572;2023-06-14T03:06:01;15.40;;;5.17;;
20229;SDS011;12195;55.790;37.572;2023-06-14T03:08:46;19.07;;;5.92;;
20229;SDS011;12195;55.790;37.572;2023-06-14T03:11:29;18.45;;;5.15;;
20229;SDS011;12195;55.790;37.572;2023-06-14T03:14:03;13.83;;;5.23;;
20229;SDS011;12195;55.790;37.572;2023-06-14T03:16:50;14.20;;;5.45;;
20229;SDS011;12195;55.790;37.572;2023-06-14T03:19:26;18.23;;;5.33;;
20229;SDS011;12195;55.790;37.572;2023-06-14T03:22:09;14.23;;;5.42;;
20229;SDS011;12195;55.790;37.572;2023-06-14T03:24:52;15.10;;;5.30;;
20229;SDS011;12195;55.790;37.572;2023-06-14T03:27:26;11.33;;;4.83;;
20229;SDS011;12195;55.790;37.572;2023-06-14T03:30:09;12.43;;;5.83;;
20229;SDS011;12195;55.790;37.572;2023-06-14T03:32:42;12.75;;;4.92;;
20229;SDS011;12195;55.790;37.572;2023-06-14T03:35:15;9.48;;;5.53;;
20229;SDS011;12195;55.790;37.572;2023-06-14T03:37:59;15.55;;;5.67;;
20229;SDS011;12195;55.790;37.572;2023-06-14T03:43:16;18.55;;;6.22;;
20229;SDS011;12195;55.790;37.572;2023-06-14T03:45:48;16.45;;;5.78;;
20229;SDS011;12195;55.790;37.572;2023-06-14T03:48:31;20.82;;;6.80;;
20229;SDS011;12195;55.790;37.572;2023-06-14T03:51:04;11.95;;;6.17;;
20229;SDS011;12195;55.790;37.572;2023-06-14T03:53:48;14.07;;;5.50;;
20229;SDS011;12195;55.790;37.572;2023-06-14T03:56:33;12.33;;;5.35;;
20229;SDS011;12195;55.790;37.572;2023-06-14T03:59:08;12.82;;;5.12;;
20229;SDS011;12195;55.790;37.572;2023-06-14T04:01:53;17.95;;;5.72;;
20229;SDS011;12195;55.790;37.572;2023-06-14T04:04:27;10.53;;;5.17;;
20229;SDS011;12195;55.790;37.572;2023-06-14T04:07:12;15.68;;;5.85;;
20229;SDS011;12195;55.790;37.572;2023-06-14T04:09:45;11.90;;;4.97;;
20229;SDS011;12195;55.790;37.572;2023-06-14T04:12:30;13.98;;;4.62;;
20229;SDS011;12195;55.790;37.572;2023-06-14T04:15:03;13.10;;;5.72;;
20229;SDS011;12195;55.790;37.572;2023-06-14T04:17:55;10.88;;;5.28;;
20229;SDS011;12195;55.790;37.572;2023-06-14T04:20:29;14.10;;;4.83;;
20229;SDS011;12195;55.790;37.572;2023-06-14T04:23:12;21.15;;;5.75;;
20229;SDS011;12195;55.790;37.572;2023-06-14T04:26:02;10.63;;;4.70;;
20229;SDS011;12195;55.790;37.572;2023-06-14T04:28:35;10.82;;;4.90;;
20229;SDS011;12195;55.790;37.572;2023-06-14T04:31:21;12.45;;;5.00;;
20229;SDS011;12195;55.790;37.572;2023-06-14T04:33:59;14.70;;;4.53;;
20229;SDS011;12195;55.790;37.572;2023-06-14T04:36:47;12.63;;;4.95;;
20229;SDS011;12195;55.790;37.572;2023-06-14T04:39:35;12.63;;;4.47;;
20229;SDS011;12195;55.790;37.572;2023-06-14T04:42:17;10.90;;;4.65;;
20229;SDS011;12195;55.790;37.572;2023-06-14T04:45:03;10.85;;;4.58;;
20229;SDS011;12195;55.790;37.572;2023-06-14T04:47:49;11.15;;;3.50;;
20229;SDS011;12195;55.790;37.572;2023-06-14T04:53:08;12.18;;;4.37;;
20229;SDS011;12195;55.790;37.572;2023-06-14T04:55:42;7.97;;;3.30;;
20229;SDS011;12195;55.790;37.572;2023-06-14T04:58:25;9.05;;;3.65;;
20229;SDS011;12195;55.790;37.572;2023-06-14T05:00:59;13.00;;;3.90;;
20229;SDS011;12195;55.790;37.572;2023-06-14T05:03:46;8.95;;;3.60;;
20229;SDS011;12195;55.790;37.572;2023-06-14T05:06:29;9.38;;;3.50;;
20229;SDS011;12195;55.790;37.572;2023-06-14T05:09:02;10.70;;;3.92;;
20229;SDS011;12195;55.790;37.572;2023-06-14T05:11:34;8.90;;;3.60;;
20229;SDS011;12195;55.790;37.572;2023-06-14T05:14:19;11.97;;;3.62;;
20229;SDS011;12195;55.790;37.572;2023-06-14T05:16:54;9.08;;;4.00;;
20229;SDS011;12195;55.790;37.572;2023-06-14T05:19:40;8.33;;;4.05;;
20229;SDS011;12195;55.790;37.572;2023-06-14T05:22:25;10.90;;;3.87;;
20229;SDS011;12195;55.790;37.572;2023-06-14T05:24:58;10.48;;;3.90;;
20229;SDS011;12195;55.790;37.572;2023-06-14T05:27:43;11.75;;;3.80;;
20229;SDS011;12195;55.790;37.572;2023-06-14T05:30:16;7.25;;;3.15;;
20229;SDS011;12195;55.790;37.572;2023-06-14T05:32:58;8.80;;;3.47;;
20229;SDS011;12195;55.790;37.572;2023-06-14T05:35:41;7.50;;;3.17;;
20229;SDS011;12195;55.790;37.572;2023-06-14T05:38:25;9.05;;;3.40;;
20229;SDS011;12195;55.790;37.572;2023-06-14T05:40:58;6.03;;;3.20;;
20229;SDS011;12195;55.790;37.572;2023-06-14T05:43:41;10.80;;;3.90;;
20229;SDS011;12195;55.790;37.572;2023-06-14T05:46:26;6.08;;;2.95;;
20229;SDS011;12195;55.790;37.572;2023-06-14T05:48:59;6.83;;;2.90;;
20229;SDS011;12195;55.790;37.572;2023-06-14T05:51:42;10.98;;;2.92;;
20229;SDS011;12195;55.790;37.572;2023-06-14T05:54:27;9.38;;;2.60;;
20229;SDS011;12195;55.790;37.572;2023-06-14T05:57:10;10.03;;;2.20;;
20229;SDS011;12195;55.790;37.572;2023-06-14T05:59:43;15.60;;;2.47;;
20229;SDS011;12195;55.790;37.572;2023-06-14T06:02:27;13.38;;;3.08;;
20229;SDS011;12195;55.790;37.572;2023-06-14T06:05:00;6.60;;;2.05;;
20229;SDS011;12195;55.790;37.572;2023-06-14T06:07:44;15.23;;;3.65;;
20229;SDS011;12195;55.790;37.572;2023-06-14T06:10:16;9.10;;;2.80;;
20229;SDS011;12195;55.790;37.572;2023-06-14T06:13:00;10.10;;;2.90;;
20229;SDS011;12195;55.790;37.572;2023-06-14T06:15:46;10.18;;;2.50;;
20229;SDS011;12195;55.790;37.572;2023-06-14T06:18:19;7.28;;;2.50;;
20229;SDS011;12195;55.790;37.572;2023-06-14T06:21:03;6.62;;;2.25;;
20229;SDS011;12195;55.790;37.572;2023-06-14T06:23:48;4.70;;;2.27;;
20229;SDS011;12195;55.790;37.572;2023-06-14T06:26:33;5.72;;;2.25;;
20229;SDS011;12195;55.790;37.572;2023-06-14T06:29:15;8.53;;;2.15;;
20229;SDS011;12195;55.790;37.572;2023-06-14T06:31:48;6.42;;;2.22;;
20229;SDS011;12195;55.790;37.572;2023-06-14T06:34:32;9.73;;;2.67;;
20229;SDS011;12195;55.790;37.572;2023-06-14T06:37:06;10.80;;;3.22;;
20229;SDS011;12195;55.790;37.572;2023-06-14T06:39:48;9.50;;;2.55;;
20229;SDS011;12195;55.790;37.572;2023-06-14T06:42:21;7.37;;;2.62;;
20229;SDS011;12195;55.790;37.572;2023-06-14T06:45:06;6.95;;;1.98;;
20229;SDS011;12195;55.790;37.572;2023-06-14T06:47:39;4.80;;;2.22;;
20229;SDS011;12195;55.790;37.572;2023-06-14T06:50:22;9.53;;;2.47;;
20229;SDS011;12195;55.790;37.572;2023-06-14T06:52:55;6.60;;;2.52;;
20229;SDS011;12195;55.790;37.572;2023-06-14T06:55:38;5.78;;;2.30;;
20229;SDS011;12195;55.790;37.572;2023-06-14T06:58:22;5.80;;;2.10;;
20229;SDS011;12195;55.790;37.572;2023-06-14T07:00:55;3.83;;;1.57;;
20229;SDS011;12195;55.790;37.572;2023-06-14T07:03:38;5.35;;;2.33;;
20229;SDS011;12195;55.790;37.572;2023-06-14T07:06:22;5.95;;;2.20;;
20229;SDS011;12195;55.790;37.572;2023-06-14T07:08:56;3.90;;;1.80;;
20229;SDS011;12195;55.790;37.572;2023-06-14T07:11:45;3.57;;;1.90;;
20229;SDS011;12195;55.790;37.572;2023-06-14T07:14:18;9.55;;;2.30;;
20229;SDS011;12195;55.790;37.572;2023-06-14T07:17:02;6.95;;;2.42;;
20229;SDS011;12195;55.790;37.572;2023-06-14T07:19:48;3.70;;;1.97;;
20229;SDS011;12195;55.790;37.572;2023-06-14T07:22:33;5.28;;;1.60;;
20229;SDS011;12195;55.790;37.572;2023-06-14T07:25:06;11.68;;;2.62;;
20229;SDS011;12195;55.790;37.572;2023-06-14T07:27:50;6.90;;;2.00;;
20229;SDS011;12195;55.790;37.572;2023-06-14T07:30:22;4.60;;;1.87;;
20229;SDS011;12195;55.790;37.572;2023-06-14T07:33:07;6.92;;;2.25;;
20229;SDS011;12195;55.790;37.572;2023-06-14T07:35:41;8.78;;;2.55;;
20229;SDS011;12195;55.790;37.572;2023-06-14T07:38:25;6.58;;;2.27;;
20229;SDS011;12195;55.790;37.572;2023-06-14T07:40:57;5.42;;;2.12;;
20229;SDS011;12195;55.790;37.572;2023-06-14T07:43:42;2.83;;;1.70;;
20229;SDS011;12195;55.790;37.572;2023-06-14T07:46:15;2.80;;;1.90;;
20229;SDS011;12195;55.790;37.572;2023-06-14T07:49:00;5.47;;;2.10;;
20229;SDS011;12195;55.790;37.572;2023-06-14T07:51:34;4.40;;;2.00;;
20229;SDS011;12195;55.790;37.572;2023-06-14T07:54:16;5.40;;;1.90;;
20229;SDS011;12195;55.790;37.572;2023-06-14T07:56:50;10.95;;;2.72;;
20229;SDS011;12195;55.790;37.572;2023-06-14T07:59:35;9.83;;;2.42;;
20229;SDS011;12195;55.790;37.572;2023-06-14T08:02:20;9.30;;;2.90;;
20229;SDS011;12195;55.790;37.572;2023-06-14T08:05:03;6.87;;;2.12;;
20229;SDS011;12195;55.790;37.572;2023-06-14T08:07:37;5.17;;;2.00;;
20229;SDS011;12195;55.790;37.572;2023-06-14T08:10:22;7.85;;;2.45;;
20229;SDS011;12195;55.790;37.572;2023-06-14T08:13:08;6.17;;;2.10;;
20229;SDS011;12195;55.790;37.572;2023-06-14T08:15:52;3.35;;;1.60;;
20229;SDS011;12195;55.790;37.572;2023-06-14T08:18:26;3.85;;;2.22;;
20229;SDS011;12195;55.790;37.572;2023-06-14T08:21:12;9.13;;;3.23;;
20229;SDS011;12195;55.790;37.572;2023-06-14T08:23:59;6.35;;;2.92;;
20229;SDS011;12195;55.790;37.572;2023-06-14T08:26:32;5.40;;;2.40;;
20229;SDS011;12195;55.790;37.572;2023-06-14T08:29:14;3.00;;;2.15;;
20229;SDS011;12195;55.790;37.572;2023-06-14T08:31:48;6.22;;;2.12;;
20229;SDS011;12195;55.790;37.572;2023-06-14T08:34:31;12.70;;;4.05;;
20229;SDS011;12195;55.790;37.572;2023-06-14T08:37:17;7.92;;;1.95;;
20229;SDS011;12195;55.790;37.572;2023-06-14T08:39:50;3.45;;;2.22;;
20229;SDS011;12195;55.790;37.572;2023-06-14T08:42:35;4.03;;;2.37;;
20229;SDS011;12195;55.790;37.572;2023-06-14T08:45:22;10.20;;;4.80;;
20229;SDS011;12195;55.790;37.572;2023-06-14T08:47:55;4.50;;;2.42;;
20229;SDS011;12195;55.790;37.572;2023-06-14T08:50:43;3.75;;;2.17;;
20229;SDS011;12195;55.790;37.572;2023-06-14T08:53:19;5.22;;;1.90;;
20229;SDS011;12195;55.790;37.572;2023-06-14T08:56:04;6.25;;;2.33;;
20229;SDS011;12195;55.790;37.572;2023-06-14T09:01:25;5.08;;;1.72;;
20229;SDS011;12195;55.790;37.572;2023-06-14T09:03:58;3.55;;;2.22;;
20229;SDS011;12195;55.790;37.572;2023-06-14T09:06:41;8.10;;;2.67;;
20229;SDS011;12195;55.790;37.572;2023-06-14T09:09:15;7.15;;;2.08;;
20229;SDS011;12195;55.790;37.572;2023-06-14T09:11:58;9.10;;;2.52;;
20229;SDS011;12195;55.790;37.572;2023-06-14T09:14:31;7.75;;;2.85;;
20229;SDS011;12195;55.790;37.572;2023-06-14T09:17:18;4.97;;;2.22;;
20229;SDS011;12195;55.790;37.572;2023-06-14T09:19:51;7.37;;;2.45;;
20229;SDS011;12195;55.790;37.572;2023-06-14T09:22:37;6.12;;;2.83;;
20229;SDS011;12195;55.790;37.572;2023-06-14T09:25:23;3.08;;;2.00;;
20229;SDS011;12195;55.790;37.572;2023-06-14T09:28:12;5.03;;;2.65;;
20229;SDS011;12195;55.790;37.572;2023-06-14T09:30:55;8.30;;;2.60;;
20229;SDS011;12195;55.790;37.572;2023-06-14T09:33:44;8.48;;;2.70;;
20229;SDS011;12195;55.790;37.572;2023-06-14T09:36:22;9.15;;;4.35;;
20229;SDS011;12195;55.790;37.572;2023-06-14T09:39:07;5.55;;;2.05;;
20229;SDS011;12195;55.790;37.572;2023-06-14T09:41:40;5.80;;;2.17;;
20229;SDS011;12195;55.790;37.572;2023-06-14T09:44:26;6.20;;;3.62;;
20229;SDS011;12195;55.790;37.572;2023-06-14T09:47:00;6.40;;;2.80;;
20229;SDS011;12195;55.790;37.572;2023-06-14T09:49:46;7.37;;;1.95;;
20229;SDS011;12195;55.790;37.572;2023-06-14T09:52:20;4.17;;;2.08;;
20229;SDS011;12195;55.790;37.572;2023-06-14T09:55:08;4.95;;;1.80;;
20229;SDS011;12195;55.790;37.572;2023-06-14T09:57:55;4.45;;;2.47;;
20229;SDS011;12195;55.790;37.572;2023-06-14T10:00:30;8.43;;;3.27;;
20229;SDS011;12195;55.790;37.572;2023-06-14T10:03:24;7.90;;;3.12;;
20229;SDS011;12195;55.790;37.572;2023-06-14T10:06:06;8.23;;;2.80;;
20229;SDS011;12195;55.790;37.572;2023-06-14T10:08:52;8.15;;;3.00;;
20229;SDS011;12195;55.790;37.572;2023-06-14T10:11:27;6.28;;;2.50;;
20229;SDS011;12195;55.790;37.572;2023-06-14T10:14:12;7.40;;;2.20;;
20229;SDS011;12195;55.790;37.572;2023-06-14T10:17:03;8.88;;;2.62;;
20229;SDS011;12195;55.790;37.572;2023-06-14T10:23:01;6.80;;;2.25;;
20229;SDS011;12195;55.790;37.572;2023-06-14T10:25:41;5.75;;;2.10;;
20229;SDS011;12195;55.790;37.572;2023-06-14T10:28:27;2.37;;;2.17;;
20229;SDS011;12195;55.790;37.572;2023-06-14T10:31:12;3.08;;;1.90;;
20229;SDS011;12195;55.790;37.572;2023-06-14T10:33:56;7.00;;;2.67;;
20229;SDS011;12195;55.790;37.572;2023-06-14T10:36:31;4.15;;;1.92;;
20229;SDS011;12195;55.790;37.572;2023-06-14T10:39:16;5.90;;;2.67;;
20229;SDS011;12195;55.790;37.572;2023-06-14T10:41:54;6.30;;;1.80;;
20229;SDS011;12195;55.790;37.572;2023-06-14T10:44:38;5.03;;;2.60;;
20229;SDS011;12195;55.790;37.572;2023-06-14T10:47:36;5.08;;;2.50;;
20229;SDS011;12195;55.790;37.572;2023-06-14T10:50:15;5.22;;;2.17;;
20229;SDS011;12195;55.790;37.572;2023-06-14T10:52:50;5.62;;;2.30;;
20229;SDS011;12195;55.790;37.572;2023-06-14T10:55:35;5.92;;;2.10;;
20229;SDS011;12195;55.790;37.572;2023-06-14T10:58:08;3.13;;;2.10;;
20229;SDS011;12195;55.790;37.572;2023-06-14T11:00:41;7.75;;;2.30;;
20229;SDS011;12195;55.790;37.572;2023-06-14T11:03:31;6.37;;;2.60;;
20229;SDS011;12195;55.790;37.572;2023-06-14T11:06:22;4.53;;;2.17;;
20229;SDS011;12195;55.790;37.572;2023-06-14T11:11:54;6.15;;;2.85;;
20229;SDS011;12195;55.790;37.572;2023-06-14T11:14:31;9.55;;;2.17;;
20229;SDS011;12195;55.790;37.572;2023-06-14T11:17:14;4.72;;;2.08;;
20229;SDS011;12195;55.790;37.572;2023-06-14T11:19:47;3.70;;;1.90;;
20229;SDS011;12195;55.790;37.572;2023-06-14T11:22:38;5.20;;;2.10;;
20229;SDS011;12195;55.790;37.572;2023-06-14T11:25:18;4.35;;;2.10;;
20229;SDS011;12195;55.790;37.572;2023-06-14T11:27:51;4.80;;;2.50;;
20229;SDS011;12195;55.790;37.572;2023-06-14T11:30:36;7.53;;;2.58;;
20229;SDS011;12195;55.790;37.572;2023-06-14T11:33:09;8.13;;;2.98;;
20229;SDS011;12195;55.790;37.572;2023-06-14T11:35:54;3.40;;;2.20;;
20229;SDS011;12195;55.790;37.572;2023-06-14T11:38:38;3.62;;;1.98;;
20229;SDS011;12195;55.790;37.572;2023-06-14T11:41:24;5.92;;;2.10;;
20229;SDS011;12195;55.790;37.572;2023-06-14T11:43:56;3.58;;;2.00;;
20229;SDS011;12195;55.790;37.572;2023-06-14T11:46:40;4.08;;;2.47;;
20229;SDS011;12195;55.790;37.572;2023-06-14T11:49:25;5.55;;;2.60;;
20229;SDS011;12195;55.790;37.572;2023-06-14T11:51:58;7.17;;;2.40;;
20229;SDS011;12195;55.790;37.572;2023-06-14T11:54:41;6.17;;;2.62;;
20229;SDS011;12195;55.790;37.572;2023-06-14T11:57:26;4.95;;;1.80;;
20229;SDS011;12195;55.790;37.572;2023-06-14T11:59:59;5.28;;;2.30;;
20229;SDS011;12195;55.790;37.572;2023-06-14T12:02:53;3.10;;;1.90;;
20229;SDS011;12195;55.790;37.572;2023-06-14T12:05:28;2.33;;;1.57;;
20229;SDS011;12195;55.790;37.572;2023-06-14T12:08:13;5.85;;;2.02;;
20229;SDS011;12195;55.790;37.572;2023-06-14T12:10:50;2.95;;;1.52;;
20229;SDS011;12195;55.790;37.572;2023-06-14T12:13:32;3.12;;;1.70;;
20229;SDS011;12195;55.790;37.572;2023-06-14T12:16:07;6.40;;;2.40;;
20229;SDS011;12195;55.790;37.572;2023-06-14T12:18:50;5.25;;;2.40;;
20229;SDS011;12195;55.790;37.572;2023-06-14T12:21:37;6.55;;;2.70;;
20229;SDS011;12195;55.790;37.572;2023-06-14T12:24:22;7.47;;;2.25;;
20229;SDS011;12195;55.790;37.572;2023-06-14T12:26:58;2.92;;;1.60;;
20229;SDS011;12195;55.790;37.572;2023-06-14T12:29:44;6.62;;;2.60;;
20229;SDS011;12195;55.790;37.572;2023-06-14T12:32:27;3.95;;;1.70;;
20229;SDS011;12195;55.790;37.572;2023-06-14T12:35:11;5.15;;;2.22;;
20229;SDS011;12195;55.790;37.572;2023-06-14T12:37:57;4.17;;;1.57;;
20229;SDS011;12195;55.790;37.572;2023-06-14T12:40:30;2.62;;;1.90;;
20229;SDS011;12195;55.790;37.572;2023-06-14T12:43:16;4.95;;;2.00;;
20229;SDS011;12195;55.790;37.572;2023-06-14T12:46:01;7.05;;;2.33;;
20229;SDS011;12195;55.790;37.572;2023-06-14T12:48:34;4.22;;;2.30;;
20229;SDS011;12195;55.790;37.572;2023-06-14T12:51:17;5.33;;;1.90;;
20229;SDS011;12195;55.790;37.572;2023-06-14T12:54:02;5.28;;;1.90;;
20229;SDS011;12195;55.790;37.572;2023-06-14T12:56:36;3.67;;;1.98;;
20229;SDS011;12195;55.790;37.572;2023-06-14T13:01:40;5.72;;;1.77;;
20229;SDS011;12195;55.790;37.572;2023-06-14T13:04:25;6.55;;;2.08;;
20229;SDS011;12195;55.790;37.572;2023-06-14T13:07:07;4.37;;;1.57;;
20229;SDS011;12195;55.790;37.572;2023-06-14T13:09:41;4.15;;;1.60;;
20229;SDS011;12195;55.790;37.572;2023-06-14T13:12:26;3.30;;;1.70;;
20229;SDS011;12195;55.790;37.572;2023-06-14T13:14:59;2.75;;;1.37;;
20229;SDS011;12195;55.790;37.572;2023-06-14T13:17:42;3.45;;;1.92;;
20229;SDS011;12195;55.790;37.572;2023-06-14T13:20:16;3.92;;;1.72;;
20229;SDS011;12195;55.790;37.572;2023-06-14T13:23:01;5.92;;;2.00;;
20229;SDS011;12195;55.790;37.572;2023-06-14T13:25:36;5.08;;;2.98;;
20229;SDS011;12195;55.790;37.572;2023-06-14T13:28:20;1.65;;;1.52;;
20229;SDS011;12195;55.790;37.572;2023-06-14T13:30:52;5.77;;;2.13;;
20229;SDS011;12195;55.790;37.572;2023-06-14T13:33:37;4.70;;;1.92;;
20229;SDS011;12195;55.790;37.572;2023-06-14T13:36:10;8.88;;;2.70;;
20229;SDS011;12195;55.790;37.572;2023-06-14T13:38:54;7.28;;;2.05;;
20229;SDS011;12195;55.790;37.572;2023-06-14T13:41:38;11.63;;;2.40;;
20229;SDS011;12195;55.790;37.572;2023-06-14T13:44:20;5.45;;;2.30;;
20229;SDS011;12195;55.790;37.572;2023-06-14T13:47:02;7.15;;;2.40;;
20229;SDS011;12195;55.790;37.572;2023-06-14T13:49:46;4.45;;;2.15;;
20229;SDS011;12195;55.790;37.572;2023-06-14T13:52:29;8.63;;;2.83;;
20229;SDS011;12195;55.790;37.572;2023-06-14T13:55:02;5.10;;;2.60;;
20229;SDS011;12195;55.790;37.572;2023-06-14T13:57:47;5.05;;;2.25;;
20229;SDS011;12195;55.790;37.572;2023-06-14T14:00:20;7.60;;;1.97;;
20229;SDS011;12195;55.790;37.572;2023-06-14T14:03:06;3.20;;;2.02;;
20229;SDS011;12195;55.790;37.572;2023-06-14T14:05:39;4.67;;;1.75;;
20229;SDS011;12195;55.790;37.572;2023-06-14T14:08:23;6.47;;;2.30;;
20229;SDS011;12195;55.790;37.572;2023-06-14T14:11:10;5.83;;;1.90;;
20229;SDS011;12195;55.790;37.572;2023-06-14T14:16:14;5.92;;;2.33;;
20229;SDS011;12195;55.790;37.572;2023-06-14T14:18:57;5.53;;;1.90;;
20229;SDS011;12195;55.790;37.572;2023-06-14T14:21:31;5.00;;;2.12;;
20229;SDS011;12195;55.790;37.572;2023-06-14T14:26:36;7.50;;;2.22;;
20229;SDS011;12195;55.790;37.572;2023-06-14T14:29:20;3.20;;;2.27;;
20229;SDS011;12195;55.790;37.572;2023-06-14T14:31:56;3.52;;;1.65;;
20229;SDS011;12195;55.790;37.572;2023-06-14T14:34:39;8.50;;;2.10;;
20229;SDS011;12195;55.790;37.572;2023-06-14T14:37:25;3.85;;;2.10;;
20229;SDS011;12195;55.790;37.572;2023-06-14T14:40:16;6.62;;;2.52;;
20229;SDS011;12195;55.790;37.572;2023-06-14T14:42:58;4.30;;;1.75;;
20229;SDS011;12195;55.790;37.572;2023-06-14T14:45:40;8.53;;;2.90;;
20229;SDS011;12195;55.790;37.572;2023-06-14T14:48:25;10.10;;;6.80;;
20229;SDS011;12195;55.790;37.572;2023-06-14T14:50:58;7.13;;;1.93;;
20229;SDS011;12195;55.790;37.572;2023-06-14T14:53:41;7.08;;;2.50;;
20229;SDS011;12195;55.790;37.572;2023-06-14T14:56:14;5.90;;;2.27;;
20229;SDS011;12195;55.790;37.572;2023-06-14T14:58:58;4.25;;;2.17;;
20229;SDS011;12195;55.790;37.572;2023-06-14T15:01:31;8.88;;;2.15;;
20229;SDS011;12195;55.790;37.572;2023-06-14T15:04:04;7.35;;;2.95;;
20229;SDS011;12195;55.790;37.572;2023-06-14T15:06:47;5.00;;;2.33;;
20229;SDS011;12195;55.790;37.572;2023-06-14T15:09:20;8.28;;;2.95;;
20229;SDS011;12195;55.790;37.572;2023-06-14T15:12:04;5.37;;;2.10;;
20229;SDS011;12195;55.790;37.572;2023-06-14T15:14:38;3.17;;;1.70;;
20229;SDS011;12195;55.790;37.572;2023-06-14T15:17:20;3.65;;;1.90;;
20229;SDS011;12195;55.790;37.572;2023-06-14T15:20:06;5.47;;;2.72;;
20229;SDS011;12195;55.790;37.572;2023-06-14T15:22:49;4.78;;;1.90;;
20229;SDS011;12195;55.790;37.572;2023-06-14T15:25:31;7.90;;;2.40;;
20229;SDS011;12195;55.790;37.572;2023-06-14T15:28:04;4.05;;;2.02;;
20229;SDS011;12195;55.790;37.572;2023-06-14T15:30:48;4.75;;;2.15;;
20229;SDS011;12195;55.790;37.572;2023-06-14T15:33:31;5.90;;;2.50;;
20229;SDS011;12195;55.790;37.572;2023-06-14T15:36:05;5.40;;;2.25;;
20229;SDS011;12195;55.790;37.572;2023-06-14T15:38:51;6.97;;;2.52;;
20229;SDS011;12195;55.790;37.572;2023-06-14T15:41:35;6.72;;;2.72;;
20229;SDS011;12195;55.790;37.572;2023-06-14T15:44:17;9.30;;;3.22;;
20229;SDS011;12195;55.790;37.572;2023-06-14T15:46:50;5.80;;;2.22;;
20229;SDS011;12195;55.790;37.572;2023-06-14T15:49:34;6.35;;;2.92;;
20229;SDS011;12195;55.790;37.572;2023-06-14T15:52:08;7.87;;;3.25;;
20229;SDS011;12195;55.790;37.572;2023-06-14T15:54:52;4.90;;;3.12;;
20229;SDS011;12195;55.790;37.572;2023-06-14T15:57:25;8.63;;;2.98;;
20229;SDS011;12195;55.790;37.572;2023-06-14T16:00:15;10.68;;;3.30;;
20229;SDS011;12195;55.790;37.572;2023-06-14T16:02:49;9.88;;;3.95;;
20229;SDS011;12195;55.790;37.572;2023-06-14T16:05:34;10.38;;;3.87;;
20229;SDS011;12195;55.790;37.572;2023-06-14T16:08:07;7.15;;;2.87;;
20229;SDS011;12195;55.790;37.572;2023-06-14T16:10:50;6.75;;;3.10;;
20229;SDS011;12195;55.790;37.572;2023-06-14T16:13:23;12.45;;;3.65;;